Aviation Digital Data Service (ADDS)

Output produced by METARs form (0808 UTC 09 April 2020)
found at http://aviationweather.gov/metar/data/
 
METAR text: EDDH 090750Z 30009KT CAVOK 12/05 Q1024 NOSIG
Conditions at: EDDH (HAMBURG/FUHLSBUT, DE) observed 0750 UTC 09 April 2020
Temperature: 12.0°C (54°F)
Dewpoint: 5.0°C (41°F) [RH = 62%]
Pressure (altimeter): 30.24 inches Hg (1024.0 mb)
Winds: from the WNW (300 degrees) at 10 MPH (9 knots; 4.6 m/s)
Visibility: 6 or more miles (10+ km)
Ceiling: ceiling and visibility are OK
Clouds: unknown
Weather: no significant weather observed at this time

METAR text: EDDH 090720Z 30007KT 270V330 CAVOK 12/05 Q1024 NOSIG
Conditions at: EDDH (HAMBURG/FUHLSBUT, DE) observed 0720 UTC 09 April 2020
Temperature: 12.0°C (54°F)
Dewpoint: 5.0°C (41°F) [RH = 62%]
Pressure (altimeter): 30.24 inches Hg (1024.0 mb)
Winds: from the WNW (300 degrees) at 8 MPH (7 knots; 3.6 m/s)
Visibility: 6 or more miles (10+ km)
Ceiling: ceiling and visibility are OK
Clouds: unknown
Weather: no significant weather observed at this time

Forecast for: EDDH (HAMBURG/FUHLSBUT, DE)
Text: TAF EDDH 090500Z 0906/1012 30004KT CAVOK
Forecast period: 0600 to 0700 UTC 09 April 2020
Forecast type: FROM: standard forecast or significant change
Winds: from the WNW (300 degrees) at 5 MPH (4 knots; 2.1 m/s)
Visibility: 6 or more miles 10+ km)
Ceiling: unknown
Clouds: missing
Weather: NSW  (no significant weather)
Text: BECMG 0907/0909 31010KT
Forecast period: 0700 to 1800 UTC 09 April 2020
Forecast type: BECOMING: Conditions expected to become as follows by 0900 UTC 09 April 2020
Winds: from the NW (310 degrees) at 12 MPH (10 knots; 5.1 m/s)
Visibility: 6 or more miles 10+ km)
Ceiling: unknown
Clouds: missing
Weather: NSW  (no significant weather)
Text: PROB30
Forecast period: 1000 to 1300 UTC 09 April 2020
Forecast type: TEMPORARY: The following changes expected for less than half the time period
Winds: from the NNW (330 degrees) at 17 MPH (15 knots; 7.7 m/s)
Visibility: missing
Ceiling: unknown
Clouds: missing
Weather: no significant weather forecast for this period
Text: TEMPO 0910/0913 33015KT
Forecast period: 1800 UTC 09 April 2020 to 1200 UTC 10 April 2020
Forecast type: BECOMING: Conditions expected to become as follows by 2000 UTC 09 April 2020
Winds: from the NW (320 degrees) at 5 MPH (4 knots; 2.1 m/s)
Visibility: 6 or more miles 10+ km)
Ceiling: unknown
Clouds: missing
Weather: NSW  (no significant weather)
Text: BECMG 0918/0920 32004KT
Forecast period: 0300 to 0500 UTC 10 April 2020
Forecast type: TEMPORARY: The following changes expected for less than half the time period
Visibility: 2.49 miles (4.01 km)
Ceiling: unknown
Clouds: missing
Weather: BR  (mist)